createdAt,value
2018-06-22T00:01:06.908Z,100143.00
2018-06-22T00:03:11.406Z,100141.00
2018-06-22T00:05:15.562Z,100147.00
2018-06-22T00:07:20.016Z,100135.00
2018-06-22T00:09:24.462Z,100136.00
2018-06-22T00:11:28.894Z,100135.00
2018-06-22T00:13:33.311Z,100134.00
2018-06-22T00:15:37.719Z,100138.00
2018-06-22T00:17:43.223Z,100132.00
2018-06-22T00:19:47.690Z,100132.00
2018-06-22T00:21:52.172Z,100126.00
2018-06-22T00:23:56.588Z,100128.00
2018-06-22T00:26:01.115Z,100117.00
2018-06-22T00:28:05.638Z,100121.00
2018-06-22T00:30:10.882Z,100126.00
2018-06-22T00:32:15.291Z,100117.00
2018-06-22T00:34:19.743Z,100119.00
2018-06-22T00:36:24.214Z,100127.00
2018-06-22T00:38:28.655Z,100123.00
2018-06-22T00:40:33.114Z,100118.00
2018-06-22T00:42:37.584Z,100117.00
2018-06-22T00:44:44.849Z,100113.00
2018-06-22T00:46:51.481Z,100107.00
2018-06-22T00:48:56.438Z,100110.00
2018-06-22T00:51:00.875Z,100115.00
2018-06-22T00:53:21.360Z,100119.00
2018-06-22T00:55:25.978Z,100118.00
2018-06-22T00:57:30.434Z,100109.00
2018-06-22T00:59:34.948Z,100110.00
2018-06-22T01:01:41.274Z,100107.00
2018-06-22T01:03:48.172Z,100102.00
2018-06-22T01:05:55.553Z,100097.00
2018-06-22T01:08:02.367Z,100095.00
2018-06-22T01:10:11.186Z,100106.00
2018-06-22T01:12:16.759Z,100094.00
2018-06-22T01:14:25.526Z,100091.00
2018-06-22T01:16:33.286Z,100093.00
2018-06-22T01:18:41.686Z,100093.00
2018-06-22T01:20:49.024Z,100091.00
2018-06-22T01:22:54.892Z,100095.00
2018-06-22T01:25:02.375Z,100090.00
2018-06-22T01:27:09.620Z,100086.00
2018-06-22T01:29:21.396Z,100081.00
2018-06-22T01:31:28.134Z,100082.00
2018-06-22T01:33:35.577Z,100087.00
2018-06-22T01:35:44.487Z,100091.00
2018-06-22T01:37:50.739Z,100097.00
2018-06-22T01:39:58.924Z,100096.00
2018-06-22T01:42:06.100Z,100099.00
2018-06-22T01:44:12.440Z,100097.00
2018-06-22T01:46:19.797Z,100096.00
2018-06-22T01:48:26.750Z,100100.00
2018-06-22T01:50:34.208Z,100096.00
2018-06-22T01:52:42.687Z,100095.00
2018-06-22T01:54:50.353Z,100088.00
2018-06-22T01:56:59.135Z,100089.00
2018-06-22T01:59:07.383Z,100096.00
2018-06-22T02:01:14.655Z,100088.00
2018-06-22T02:03:22.570Z,100095.00
2018-06-22T02:05:28.124Z,100089.00
2018-06-22T02:07:34.405Z,100093.00
2018-06-22T02:09:40.818Z,100083.00
2018-06-22T02:11:49.335Z,100086.00
2018-06-22T02:13:56.470Z,100092.00
2018-06-22T02:16:02.612Z,100079.00
2018-06-22T02:18:09.243Z,100082.00
2018-06-22T02:20:15.460Z,100090.00
2018-06-22T02:22:21.437Z,100075.00
2018-06-22T02:24:25.863Z,100090.00
2018-06-22T02:26:30.411Z,100093.00
2018-06-22T02:28:34.882Z,100078.00
2018-06-22T02:30:39.429Z,100084.00
2018-06-22T02:32:44.634Z,100082.00
2018-06-22T02:34:49.339Z,100076.00
2018-06-22T02:36:53.739Z,100069.00
2018-06-22T02:38:58.860Z,100075.00
2018-06-22T02:41:07.111Z,100082.00
2018-06-22T02:43:11.534Z,100073.00
2018-06-22T02:47:23.946Z,100062.00
2018-06-22T02:49:28.370Z,100065.00
2018-06-22T02:51:32.755Z,100064.00
2018-06-22T02:53:37.155Z,100074.00
2018-06-22T02:55:41.567Z,100062.00
2018-06-22T02:57:45.978Z,100062.00
2018-06-22T02:59:50.459Z,100066.00
2018-06-22T03:01:54.943Z,100069.00
2018-06-22T03:03:59.324Z,100056.00
2018-06-22T03:06:04.328Z,100056.00
2018-06-22T03:08:08.798Z,100066.00
2018-06-22T03:10:12.912Z,100076.00
2018-06-22T03:12:17.306Z,100068.00
2018-06-22T03:14:21.712Z,100057.00
2018-06-22T03:16:25.816Z,100062.00
2018-06-22T03:18:30.248Z,100070.00
2018-06-22T03:20:34.643Z,100073.00
2018-06-22T03:22:39.136Z,100073.00
2018-06-22T03:24:43.251Z,100062.00
2018-06-22T03:26:47.659Z,100064.00
2018-06-22T03:28:52.030Z,100058.00
2018-06-22T03:30:56.500Z,100062.00
2018-06-22T03:33:00.867Z,100058.00
2018-06-22T03:35:06.178Z,100053.00
2018-06-22T03:37:10.710Z,100059.00
2018-06-22T03:39:14.826Z,100061.00
2018-06-22T03:41:19.224Z,100047.00
2018-06-22T03:43:23.594Z,100054.00
2018-06-22T03:45:28.054Z,100051.00
2018-06-22T03:47:32.575Z,100048.00
2018-06-22T03:49:37.019Z,100048.00
2018-06-22T03:51:41.573Z,100049.00
2018-06-22T03:53:46.201Z,100053.00
2018-06-22T03:55:50.637Z,100041.00
2018-06-22T03:57:54.994Z,100047.00
2018-06-22T04:00:01.325Z,100047.00
2018-06-22T04:02:11.615Z,100053.00
2018-06-22T04:04:22.221Z,100050.00
2018-06-22T04:06:28.909Z,100049.00
2018-06-22T04:08:35.220Z,100040.00
2018-06-22T04:10:43.323Z,100036.00
2018-06-22T04:12:51.623Z,100039.00
2018-06-22T04:15:00.069Z,100037.00
2018-06-22T04:17:05.550Z,100028.00
2018-06-22T04:19:13.393Z,100033.00
2018-06-22T04:21:20.631Z,100025.00
2018-06-22T04:23:27.831Z,100026.00
2018-06-22T04:25:34.592Z,100016.00
2018-06-22T04:27:42.120Z,100029.00
2018-06-22T04:29:48.811Z,100028.00
2018-06-22T04:31:53.927Z,100027.00
2018-06-22T04:33:58.360Z,100026.00
2018-06-22T04:36:02.801Z,100031.00
2018-06-22T04:38:07.141Z,100019.00
2018-06-22T04:40:11.743Z,100025.00
2018-06-22T04:42:16.107Z,100028.00
2018-06-22T04:44:20.586Z,100036.00
2018-06-22T04:46:25.115Z,100032.00
2018-06-22T04:48:29.773Z,100035.00
2018-06-22T04:50:34.218Z,100032.00
2018-06-22T04:52:38.619Z,100034.00
2018-06-22T04:54:46.265Z,100024.00
2018-06-22T04:56:50.797Z,100025.00
2018-06-22T04:58:55.234Z,100024.00
2018-06-22T05:00:59.682Z,100020.00
2018-06-22T05:03:04.095Z,100024.00
2018-06-22T05:05:08.489Z,100026.00
2018-06-22T05:07:12.947Z,100020.00
2018-06-22T05:09:17.404Z,100032.00
2018-06-22T05:11:21.966Z,100045.00
2018-06-22T05:13:27.343Z,100053.00
2018-06-22T05:15:31.762Z,100054.00
2018-06-22T05:17:36.187Z,100036.00
2018-06-22T05:19:40.559Z,100045.00
2018-06-22T05:21:45.065Z,100047.00
2018-06-22T05:23:49.458Z,100063.00
2018-06-22T05:25:53.859Z,100049.00
2018-06-22T05:28:01.987Z,100049.00
2018-06-22T05:30:10.599Z,100050.00
2018-06-22T05:32:15.139Z,100041.00
2018-06-22T05:34:19.378Z,100048.00
2018-06-22T05:36:23.959Z,100043.00
2018-06-22T05:38:28.383Z,100055.00
2018-06-22T05:40:32.810Z,100055.00
2018-06-22T05:42:37.806Z,100045.00
2018-06-22T05:44:42.204Z,100048.00
2018-06-22T05:46:46.627Z,100057.00
2018-06-22T05:48:51.031Z,100061.00
2018-06-22T05:50:55.497Z,100064.00
2018-06-22T05:52:59.842Z,100057.00
2018-06-22T05:55:04.255Z,100068.00
2018-06-22T05:57:08.679Z,100064.00
2018-06-22T05:59:13.072Z,100061.00
2018-06-22T06:01:17.624Z,100057.00
2018-06-22T06:03:22.164Z,100068.00
2018-06-22T06:05:26.576Z,100061.00
2018-06-22T06:07:31.030Z,100061.00
2018-06-22T06:09:37.419Z,100069.00
2018-06-22T06:11:41.836Z,100082.00
2018-06-22T06:13:46.238Z,100066.00
2018-06-22T06:15:50.687Z,100068.00
2018-06-22T06:17:55.087Z,100076.00
2018-06-22T06:19:59.511Z,100084.00
2018-06-22T06:22:04.007Z,100084.00
2018-06-22T06:24:08.494Z,100083.00
2018-06-22T06:26:13.045Z,100083.00
2018-06-22T06:28:17.394Z,100086.00
2018-06-22T06:30:21.806Z,100078.00
2018-06-22T06:32:26.234Z,100076.00
2018-06-22T06:34:30.626Z,100073.00
2018-06-22T06:36:35.127Z,100079.00
2018-06-22T06:38:39.620Z,100074.00
2018-06-22T06:40:44.125Z,100060.00
2018-06-22T06:42:49.176Z,100073.00
2018-06-22T06:44:53.583Z,100075.00
2018-06-22T06:46:57.999Z,100068.00
2018-06-22T06:49:02.437Z,100083.00
2018-06-22T06:51:07.136Z,100078.00
2018-06-22T06:53:11.520Z,100077.00
2018-06-22T06:55:16.052Z,100076.00
2018-06-22T06:57:20.675Z,100082.00
2018-06-22T06:59:25.063Z,100081.00
2018-06-22T07:01:29.634Z,100083.00
2018-06-22T07:03:34.048Z,100084.00
2018-06-22T07:05:38.484Z,100093.00
2018-06-22T07:07:42.898Z,100101.00
2018-06-22T07:09:47.323Z,100106.00
2018-06-22T07:11:51.802Z,100115.00
2018-06-22T07:13:56.244Z,100127.00
2018-06-22T07:16:00.695Z,100126.00
2018-06-22T07:18:08.851Z,100128.00
2018-06-22T07:20:15.916Z,100134.00
2018-06-22T07:22:25.807Z,100133.00
2018-06-22T07:24:33.149Z,100146.00
2018-06-22T07:26:37.723Z,100155.00
2018-06-22T07:28:42.130Z,100158.00
2018-06-22T07:30:46.621Z,100162.00
2018-06-22T07:32:51.079Z,100156.00
2018-06-22T07:34:55.503Z,100162.00
2018-06-22T07:36:59.939Z,100156.00
2018-06-22T07:39:06.539Z,100160.00
2018-06-22T07:41:10.947Z,100157.00
2018-06-22T07:43:15.319Z,100153.00
2018-06-22T07:45:19.819Z,100169.00
2018-06-22T07:47:24.195Z,100171.00
2018-06-22T07:49:28.567Z,100166.00
2018-06-22T07:51:32.986Z,100174.00
2018-06-22T07:53:37.527Z,100172.00
2018-06-22T07:55:41.944Z,100174.00
2018-06-22T07:57:46.483Z,100172.00
2018-06-22T07:59:50.834Z,100179.00
2018-06-22T08:01:55.595Z,100177.00
2018-06-22T08:04:00.312Z,100178.00
2018-06-22T08:06:04.909Z,100186.00
2018-06-22T08:08:10.297Z,100189.00
2018-06-22T08:10:14.751Z,100192.00
2018-06-22T08:12:18.960Z,100194.00
2018-06-22T08:14:23.424Z,100192.00
2018-06-22T08:16:27.859Z,100198.00
2018-06-22T08:18:32.590Z,100197.00
2018-06-22T08:20:36.991Z,100203.00
2018-06-22T08:22:41.466Z,100200.00
2018-06-22T08:24:46.088Z,100192.00
2018-06-22T08:26:50.739Z,100197.00
2018-06-22T08:28:55.147Z,100188.00
2018-06-22T08:30:59.801Z,100195.00
2018-06-22T08:33:04.291Z,100195.00
2018-06-22T08:35:08.795Z,100195.00
2018-06-22T08:37:13.410Z,100198.00
2018-06-22T08:39:17.822Z,100196.00
2018-06-22T08:41:22.286Z,100203.00
2018-06-22T08:43:26.807Z,100205.00
2018-06-22T08:45:32.006Z,100216.00
2018-06-22T08:47:36.160Z,100203.00
2018-06-22T08:49:40.559Z,100207.00
2018-06-22T08:51:45.262Z,100211.00
2018-06-22T08:53:49.677Z,100220.00
2018-06-22T08:55:54.194Z,100216.00
2018-06-22T08:57:58.610Z,100212.00
2018-06-22T09:00:03.039Z,100211.00
2018-06-22T09:02:07.548Z,100216.00
2018-06-22T09:04:13.141Z,100214.00
2018-06-22T09:06:17.747Z,100204.00
2018-06-22T09:08:22.203Z,100214.00
2018-06-22T09:10:26.635Z,100217.00
2018-06-22T09:12:32.796Z,100219.00
2018-06-22T09:14:40.248Z,100209.00
2018-06-22T09:16:46.778Z,100216.00
2018-06-22T09:18:54.131Z,100213.00
2018-06-22T09:20:59.952Z,100214.00
2018-06-22T09:23:13.156Z,100212.00
2018-06-22T09:25:19.771Z,100206.00
2018-06-22T09:27:26.391Z,100205.00
2018-06-22T09:29:30.807Z,100206.00
2018-06-22T09:31:35.353Z,100196.00
2018-06-22T09:33:42.620Z,100198.00
2018-06-22T09:35:47.780Z,100199.00
2018-06-22T09:37:52.245Z,100201.00
2018-06-22T09:39:56.640Z,100197.00
2018-06-22T09:42:01.045Z,100188.00
2018-06-22T09:44:12.191Z,100185.00
2018-06-22T09:46:18.025Z,100187.00
2018-06-22T09:48:22.439Z,100187.00
2018-06-22T09:50:26.834Z,100184.00
2018-06-22T09:52:31.884Z,100188.00
2018-06-22T09:54:36.421Z,100187.00
2018-06-22T09:56:40.506Z,100184.00
2018-06-22T09:58:45.119Z,100181.00
2018-06-22T10:00:52.575Z,100181.00
2018-06-22T10:02:57.205Z,100196.00
2018-06-22T10:05:01.677Z,100201.00
2018-06-22T10:07:06.131Z,100195.00
2018-06-22T10:09:13.063Z,100205.00
2018-06-22T10:11:17.525Z,100203.00
2018-06-22T10:13:21.976Z,100208.00
2018-06-22T10:15:26.073Z,100206.00
2018-06-22T10:17:30.562Z,100211.00
2018-06-22T10:19:35.413Z,100210.00
2018-06-22T10:21:39.859Z,100222.00
2018-06-22T10:23:44.379Z,100232.00
2018-06-22T10:25:49.287Z,100235.00
2018-06-22T10:27:53.647Z,100227.00
2018-06-22T10:29:58.662Z,100237.00
2018-06-22T10:32:03.084Z,100245.00
2018-06-22T10:34:07.663Z,100229.00
2018-06-22T10:36:12.037Z,100238.00
2018-06-22T10:38:16.522Z,100231.00
2018-06-22T10:40:21.048Z,100227.00
2018-06-22T10:42:25.515Z,100237.00
2018-06-22T10:44:30.052Z,100240.00
2018-06-22T10:46:35.740Z,100226.00
2018-06-22T10:48:40.192Z,100225.00
2018-06-22T10:50:44.885Z,100222.00
2018-06-22T10:52:49.379Z,100212.00
2018-06-22T10:54:53.797Z,100224.00
2018-06-22T10:56:58.276Z,100235.00
2018-06-22T10:59:02.926Z,100239.00
2018-06-22T11:01:07.904Z,100241.00
2018-06-22T11:03:12.413Z,100244.00
2018-06-22T11:05:16.844Z,100257.00
2018-06-22T11:07:21.347Z,100255.00
2018-06-22T11:09:25.854Z,100247.00
2018-06-22T11:11:30.292Z,100244.00
2018-06-22T11:13:35.888Z,100255.00
2018-06-22T11:15:40.331Z,100243.00
2018-06-22T11:17:44.771Z,100254.00
2018-06-22T11:19:49.264Z,100259.00
2018-06-22T11:21:53.867Z,100243.00
2018-06-22T11:23:58.375Z,100253.00
2018-06-22T11:26:02.783Z,100250.00
2018-06-22T11:28:07.196Z,100251.00
2018-06-22T11:30:11.669Z,100244.00
2018-06-22T11:32:16.270Z,100240.00
2018-06-22T11:34:20.789Z,100244.00
2018-06-22T11:36:25.222Z,100242.00
2018-06-22T11:38:30.550Z,100244.00
2018-06-22T11:40:36.195Z,100243.00
2018-06-22T11:42:40.618Z,100236.00
2018-06-22T11:44:45.094Z,100230.00
2018-06-22T11:46:49.624Z,100238.00
2018-06-22T11:48:54.027Z,100244.00
2018-06-22T11:50:59.527Z,100250.00
2018-06-22T11:53:04.254Z,100243.00
2018-06-22T11:55:08.738Z,100262.00
2018-06-22T11:57:13.416Z,100268.00
2018-06-22T11:59:21.206Z,100267.00
2018-06-22T12:01:25.746Z,100276.00
2018-06-22T12:03:30.215Z,100265.00
2018-06-22T12:05:34.945Z,100268.00
2018-06-22T12:07:39.407Z,100264.00
2018-06-22T12:09:43.851Z,100255.00
2018-06-22T12:11:48.769Z,100257.00
2018-06-22T12:13:53.534Z,100255.00
2018-06-22T12:15:57.954Z,100235.00
2018-06-22T12:18:02.680Z,100246.00
2018-06-22T12:20:08.343Z,100244.00
2018-06-22T12:22:13.222Z,100256.00
2018-06-22T12:24:18.165Z,100253.00
2018-06-22T12:26:23.043Z,100246.00
2018-06-22T12:28:27.658Z,100255.00
2018-06-22T12:30:32.608Z,100259.00
2018-06-22T12:32:37.410Z,100276.00
2018-06-22T12:34:42.268Z,100268.00
2018-06-22T12:36:47.102Z,100265.00
2018-06-22T12:38:51.528Z,100270.00
2018-06-22T12:40:56.884Z,100275.00
2018-06-22T12:43:01.407Z,100281.00
2018-06-22T12:45:06.106Z,100289.00
2018-06-22T12:47:10.550Z,100285.00
2018-06-22T12:49:15.308Z,100281.00
2018-06-22T12:51:19.885Z,100278.00
2018-06-22T12:53:24.377Z,100278.00
2018-06-22T12:55:29.871Z,100284.00
2018-06-22T12:57:34.320Z,100283.00
2018-06-22T12:59:38.806Z,100285.00
2018-06-22T13:01:43.228Z,100278.00
2018-06-22T13:03:47.706Z,100272.00
2018-06-22T13:05:51.870Z,100274.00
2018-06-22T13:07:56.755Z,100271.00
2018-06-22T13:10:01.367Z,100261.00
2018-06-22T13:12:06.294Z,100261.00
2018-06-22T13:14:10.822Z,100267.00
2018-06-22T13:16:16.287Z,100269.00
2018-06-22T13:18:21.032Z,100268.00
2018-06-22T13:20:25.638Z,100264.00
2018-06-22T13:22:30.604Z,100266.00
2018-06-22T13:24:35.039Z,100260.00
2018-06-22T13:26:39.983Z,100249.00
2018-06-22T13:28:44.618Z,100258.00
2018-06-22T13:30:49.401Z,100253.00
2018-06-22T13:32:53.911Z,100260.00
2018-06-22T13:34:58.999Z,100269.00
2018-06-22T13:37:03.742Z,100270.00
2018-06-22T13:39:14.800Z,100264.00
2018-06-22T13:41:19.247Z,100252.00
2018-06-22T13:43:23.725Z,100258.00
2018-06-22T13:45:28.135Z,100256.00
2018-06-22T13:47:32.629Z,100268.00
2018-06-22T13:49:37.406Z,100262.00
2018-06-22T13:51:43.186Z,100264.00
2018-06-22T13:53:47.958Z,100268.00
2018-06-22T13:55:53.779Z,100266.00
2018-06-22T13:57:58.171Z,100259.00
2018-06-22T14:00:02.987Z,100261.00
2018-06-22T14:02:08.054Z,100266.00
2018-06-22T14:04:17.636Z,100284.00
2018-06-22T14:06:27.366Z,100288.00
2018-06-22T14:08:32.419Z,100289.00
2018-06-22T14:10:37.953Z,100295.00
2018-06-22T14:12:42.499Z,100294.00
2018-06-22T14:14:47.879Z,100296.00
2018-06-22T14:16:52.423Z,100298.00
2018-06-22T14:18:57.795Z,100294.00
2018-06-22T14:21:06.051Z,100288.00
2018-06-22T14:23:10.570Z,100297.00
2018-06-22T14:25:16.277Z,100297.00
2018-06-22T14:27:20.748Z,100289.00
2018-06-22T14:29:25.716Z,100283.00
2018-06-22T14:31:30.447Z,100279.00
2018-06-22T14:33:34.944Z,100273.00
2018-06-22T14:35:40.271Z,100282.00
2018-06-22T14:37:44.724Z,100280.00
2018-06-22T14:39:49.157Z,100270.00
2018-06-22T14:41:53.977Z,100270.00
2018-06-22T14:43:58.655Z,100281.00
2018-06-22T14:46:03.247Z,100280.00
2018-06-22T14:48:07.683Z,100277.00
2018-06-22T14:50:16.946Z,100280.00
2018-06-22T14:52:21.615Z,100286.00
2018-06-22T14:54:31.455Z,100283.00
2018-06-22T14:56:41.063Z,100288.00
2018-06-22T14:58:50.570Z,100287.00
2018-06-22T15:01:01.547Z,100288.00
2018-06-22T15:03:11.591Z,100288.00
2018-06-22T15:05:21.560Z,100277.00
2018-06-22T15:07:31.227Z,100283.00
2018-06-22T15:09:35.813Z,100282.00
2018-06-22T15:11:41.814Z,100287.00
2018-06-22T15:13:49.195Z,100285.00
2018-06-22T15:15:56.553Z,100286.00
2018-06-22T15:18:01.016Z,100296.00
2018-06-22T15:20:06.937Z,100289.00
2018-06-22T15:22:12.487Z,100292.00
2018-06-22T15:24:16.916Z,100294.00
2018-06-22T15:26:21.767Z,100291.00
2018-06-22T15:28:26.494Z,100293.00
2018-06-22T15:30:31.363Z,100291.00
2018-06-22T15:32:36.092Z,100288.00
2018-06-22T15:34:46.498Z,100296.00
2018-06-22T15:36:56.299Z,100293.00
2018-06-22T15:39:06.525Z,100284.00
2018-06-22T15:41:16.772Z,100288.00
2018-06-22T15:43:26.403Z,100288.00
2018-06-22T15:45:36.154Z,100290.00
2018-06-22T15:47:46.487Z,100289.00
2018-06-22T15:49:56.409Z,100283.00
2018-06-22T15:53:05.441Z,100285.00
2018-06-22T15:55:12.060Z,100281.00
2018-06-22T15:57:16.635Z,100289.00
2018-06-22T15:59:21.294Z,100281.00
2018-06-22T16:01:26.176Z,100289.00
2018-06-22T16:03:35.859Z,100288.00
2018-06-22T16:05:41.371Z,100300.00
2018-06-22T16:07:47.525Z,100294.00
2018-06-22T16:09:57.082Z,100292.00
2018-06-22T16:12:06.847Z,100302.00
2018-06-22T16:15:15.566Z,100299.00
2018-06-22T16:17:25.319Z,100299.00
2018-06-22T16:19:35.043Z,100303.00
2018-06-22T16:21:44.873Z,100299.00
2018-06-22T16:23:55.510Z,100296.00
2018-06-22T16:26:05.434Z,100299.00
2018-06-22T16:28:09.906Z,100296.00
2018-06-22T16:30:14.379Z,100301.00
2018-06-22T16:32:18.770Z,100291.00
2018-06-22T16:34:23.306Z,100295.00
2018-06-22T16:36:28.563Z,100292.00
2018-06-22T16:38:33.037Z,100293.00
2018-06-22T16:40:37.615Z,100298.00
2018-06-22T16:42:42.131Z,100288.00
2018-06-22T16:44:46.671Z,100293.00
2018-06-22T16:46:51.795Z,100296.00
2018-06-22T16:48:56.234Z,100292.00
2018-06-22T16:51:00.703Z,100292.00
2018-06-22T16:53:05.335Z,100293.00
2018-06-22T16:55:10.467Z,100296.00
2018-06-22T16:57:19.093Z,100301.00
2018-06-22T16:59:24.328Z,100304.00
2018-06-22T17:01:29.997Z,100300.00
2018-06-22T17:03:35.199Z,100309.00
2018-06-22T17:05:40.213Z,100308.00
2018-06-22T17:07:54.370Z,100318.00
2018-06-22T17:10:04.319Z,100318.00
2018-06-22T17:12:13.798Z,100311.00
2018-06-22T17:14:24.080Z,100319.00
2018-06-22T17:16:35.054Z,100314.00
2018-06-22T17:18:44.711Z,100313.00
2018-06-22T17:20:50.598Z,100314.00
2018-06-22T17:22:57.626Z,100313.00
2018-06-22T17:25:07.804Z,100324.00
2018-06-22T17:27:12.515Z,100316.00
2018-06-22T17:29:17.295Z,100319.00
2018-06-22T17:31:22.589Z,100324.00
2018-06-22T17:33:27.664Z,100318.00
2018-06-22T17:35:32.558Z,100315.00
2018-06-22T17:37:40.963Z,100313.00
2018-06-22T17:39:45.632Z,100320.00
2018-06-22T17:41:50.367Z,100325.00
2018-06-22T17:43:55.025Z,100320.00
2018-06-22T17:45:59.874Z,100315.00
2018-06-22T17:48:04.703Z,100319.00
2018-06-22T17:50:16.152Z,100319.00
2018-06-22T17:52:21.219Z,100331.00
2018-06-22T17:54:25.830Z,100322.00
2018-06-22T17:56:33.038Z,100326.00
2018-06-22T17:58:37.619Z,100321.00
2018-06-22T18:00:49.065Z,100326.00
2018-06-22T18:02:58.993Z,100335.00
2018-06-22T18:05:08.845Z,100333.00
2018-06-22T18:07:19.097Z,100318.00
2018-06-22T18:09:28.992Z,100338.00
2018-06-22T18:11:38.895Z,100338.00
2018-06-22T18:13:43.302Z,100343.00
2018-06-22T18:15:48.782Z,100337.00
2018-06-22T18:17:53.208Z,100336.00
2018-06-22T18:19:57.867Z,100337.00
2018-06-22T18:22:02.519Z,100340.00
2018-06-22T18:24:07.456Z,100338.00
2018-06-22T18:26:13.004Z,100335.00
2018-06-22T18:28:17.659Z,100344.00
2018-06-22T18:30:22.495Z,100348.00
2018-06-22T18:32:27.142Z,100348.00
2018-06-22T18:34:32.020Z,100345.00
2018-06-22T18:36:38.116Z,100348.00
2018-06-22T18:38:44.443Z,100344.00
2018-06-22T18:40:48.943Z,100350.00
2018-06-22T18:42:53.467Z,100342.00
2018-06-22T18:44:58.474Z,100343.00
2018-06-22T18:47:03.368Z,100357.00
2018-06-22T18:49:07.831Z,100358.00
2018-06-22T18:51:14.647Z,100354.00
2018-06-22T18:53:24.383Z,100353.00
2018-06-22T18:55:34.181Z,100360.00
2018-06-22T18:57:43.929Z,100360.00
2018-06-22T18:59:49.410Z,100363.00
2018-06-22T19:01:59.454Z,100363.00
2018-06-22T19:04:03.986Z,100357.00
2018-06-22T19:06:08.540Z,100367.00
2018-06-22T19:08:13.222Z,100368.00
2018-06-22T19:10:18.575Z,100371.00
2018-06-22T19:12:23.786Z,100374.00
2018-06-22T19:14:28.515Z,100377.00
2018-06-22T19:16:33.657Z,100373.00
2018-06-22T19:18:38.114Z,100370.00
2018-06-22T19:20:42.573Z,100382.00
2018-06-22T19:22:47.115Z,100370.00
2018-06-22T19:24:52.551Z,100380.00
2018-06-22T19:26:58.140Z,100376.00
2018-06-22T19:29:06.287Z,100377.00
2018-06-22T19:31:11.884Z,100388.00
2018-06-22T19:33:16.519Z,100376.00
2018-06-22T19:35:21.030Z,100386.00
2018-06-22T19:37:26.192Z,100404.00
2018-06-22T19:39:31.953Z,100396.00
2018-06-22T19:41:36.747Z,100398.00
2018-06-22T19:43:46.714Z,100392.00
2018-06-22T19:45:57.027Z,100404.00
2018-06-22T19:48:06.930Z,100412.00
2018-06-22T19:50:16.667Z,100413.00
2018-06-22T19:52:26.256Z,100404.00
2018-06-22T19:54:31.829Z,100407.00
2018-06-22T19:56:37.638Z,100423.00
2018-06-22T19:58:42.183Z,100435.00
2018-06-22T20:00:46.747Z,100421.00
2018-06-22T20:02:51.813Z,100432.00
2018-06-22T20:04:56.877Z,100434.00
2018-06-22T20:07:01.485Z,100432.00
2018-06-22T20:09:09.943Z,100436.00
2018-06-22T20:11:15.373Z,100439.00
2018-06-22T20:13:19.750Z,100442.00
2018-06-22T20:15:25.215Z,100437.00
2018-06-22T20:17:30.355Z,100441.00
2018-06-22T20:19:34.763Z,100437.00
2018-06-22T20:21:39.604Z,100440.00
2018-06-22T20:23:44.704Z,100445.00
2018-06-22T20:25:54.246Z,100445.00
2018-06-22T20:27:59.982Z,100446.00
2018-06-22T20:30:05.388Z,100451.00
2018-06-22T20:32:10.483Z,100444.00
2018-06-22T20:34:23.886Z,100441.00
2018-06-22T20:36:34.427Z,100438.00
2018-06-22T20:38:44.948Z,100446.00
2018-06-22T20:40:54.996Z,100441.00
2018-06-22T20:43:01.026Z,100448.00
2018-06-22T20:45:11.172Z,100442.00
2018-06-22T20:47:21.010Z,100452.00
2018-06-22T20:49:32.037Z,100454.00
2018-06-22T20:51:41.162Z,100452.00
2018-06-22T20:53:45.570Z,100452.00
2018-06-22T20:55:50.128Z,100454.00
2018-06-22T20:57:54.618Z,100452.00
2018-06-22T20:59:59.106Z,100449.00
2018-06-22T21:02:03.818Z,100455.00
2018-06-22T21:04:13.360Z,100458.00
2018-06-22T21:06:18.659Z,100460.00
2018-06-22T21:08:23.122Z,100458.00
2018-06-22T21:10:27.585Z,100471.00
2018-06-22T21:12:40.407Z,100470.00
2018-06-22T21:14:37.594Z,100461.00
2018-06-22T21:16:42.083Z,100470.00
2018-06-22T21:18:47.291Z,100475.00
2018-06-22T21:20:59.432Z,100474.00
2018-06-22T21:23:04.218Z,100473.00
2018-06-22T21:25:09.523Z,100468.00
2018-06-22T21:27:19.683Z,100471.00
2018-06-22T21:29:32.243Z,100476.00
2018-06-22T21:31:45.086Z,100474.00
2018-06-22T21:33:54.566Z,100479.00
2018-06-22T21:36:04.471Z,100475.00
2018-06-22T21:38:14.571Z,100475.00
2018-06-22T21:40:19.051Z,100479.00
2018-06-22T21:42:24.225Z,100475.00
2018-06-22T21:44:31.192Z,100482.00
2018-06-22T21:46:37.451Z,100478.00
2018-06-22T21:48:44.283Z,100467.00
2018-06-22T21:50:51.616Z,100478.00
2018-06-22T21:52:58.296Z,100475.00
2018-06-22T21:55:03.059Z,100483.00
2018-06-22T21:57:07.194Z,100482.00
2018-06-22T21:59:12.563Z,100480.00
2018-06-22T22:01:17.228Z,100490.00
2018-06-22T22:03:21.755Z,100486.00
2018-06-22T22:05:26.615Z,100489.00
2018-06-22T22:07:31.015Z,100484.00
2018-06-22T22:09:44.883Z,100492.00
2018-06-22T22:11:56.815Z,100494.00
2018-06-22T22:14:01.407Z,100487.00
2018-06-22T22:16:06.871Z,100488.00
2018-06-22T22:18:11.309Z,100485.00
2018-06-22T22:20:15.753Z,100490.00
2018-06-22T22:22:20.281Z,100492.00
2018-06-22T22:24:25.776Z,100485.00
2018-06-22T22:26:30.231Z,100499.00
2018-06-22T22:28:34.676Z,100501.00
2018-06-22T22:30:39.495Z,100495.00
2018-06-22T22:32:44.042Z,100500.00
2018-06-22T22:34:50.931Z,100493.00
2018-06-22T22:36:56.059Z,100493.00
2018-06-22T22:39:00.728Z,100493.00
2018-06-22T22:41:05.140Z,100488.00
2018-06-22T22:43:09.606Z,100491.00
2018-06-22T22:45:14.040Z,100489.00
2018-06-22T22:47:18.502Z,100484.00
2018-06-22T22:49:22.923Z,100482.00
2018-06-22T22:51:27.623Z,100479.00
2018-06-22T22:53:33.222Z,100476.00
2018-06-22T22:55:37.669Z,100485.00
2018-06-22T22:57:42.056Z,100479.00
2018-06-22T22:59:46.599Z,100481.00
2018-06-22T23:01:54.386Z,100483.00
2018-06-22T23:03:58.934Z,100473.00
2018-06-22T23:06:03.063Z,100474.00
2018-06-22T23:08:08.046Z,100472.00
2018-06-22T23:10:13.347Z,100463.00
2018-06-22T23:12:17.932Z,100470.00
2018-06-22T23:14:22.459Z,100458.00
2018-06-22T23:16:26.993Z,100474.00
2018-06-22T23:18:31.423Z,100476.00
2018-06-22T23:20:36.491Z,100469.00
2018-06-22T23:22:57.959Z,100466.00
2018-06-22T23:25:02.582Z,100463.00
2018-06-22T23:27:07.176Z,100476.00
2018-06-22T23:29:11.597Z,100471.00
2018-06-22T23:31:16.048Z,100476.00
2018-06-22T23:33:20.438Z,100472.00
2018-06-22T23:35:28.597Z,100475.00
2018-06-22T23:37:33.567Z,100476.00
2018-06-22T23:39:38.042Z,100468.00
2018-06-22T23:41:42.457Z,100463.00
2018-06-22T23:43:46.923Z,100461.00
2018-06-22T23:45:51.442Z,100456.00
2018-06-22T23:47:55.891Z,100459.00
2018-06-22T23:50:00.332Z,100453.00
2018-06-22T23:52:04.778Z,100449.00
2018-06-22T23:54:09.500Z,100454.00
2018-06-22T23:56:13.958Z,100455.00
2018-06-22T23:58:18.326Z,100454.00
